Terminal Aerodrome Forecast
Issued by NWS Goodland, KS

Home | Current Version | Previous Version | Text Only | Print | Product List | Glossary On
Versions: 1 2 3 4 5 6 7 8 9 10 11 12 13 14 15 16 17 18 19 20 21 22 23 24 25
000
FTUS43 KGLD 261720
TAFGLD
TAF
KGLD 261720Z 2618/2718 07014G22KT 5SM -DZ BR OVC005
      TEMPO 2618/2621 2SM -DZ BR OVC002
     FM262300 06010KT 6SM -RA BR OVC005
      TEMPO 2700/2703 2SM BR OVC003
     FM270800 05012KT P6SM -SHRA OVC007
     FM271200 05012G20KT P6SM VCSH OVC015=

USA.gov is the U.S. government's official web portal to all federal, state and local government web resources and services.